Aérodrome :
LOGIN :

S'inscrire | Disclaimer

   EN    FR    IT 

 










Légende :    VFR   VFR Marginal   IFR   IFR Intensif   IFR Très Intensif
Visi : 
Plafond : 
>= 8 km
>= 3000ft
5 à 8 km
1000 à 3000 ft
1500m à 5 km
500 à 1000 ft
800 à 1500m
200 à 500 ft
< 800m
< 200 ft
Symboles :   Orages  Brouillard  Fortes neiges  Fortes précipitations  Vent > 20 kt
SIGMETs :   Divers  Orages  Givrage  Turbulence  Onde Orograph.  Cendres Volcan.






- Altitude de l'aérodrome : 505 ft
- Code IATA : SXB


LFST - Strasbourg

DERNIER METAR :
  • 290930Z AUTO 04009KT 350V090 9999 SCT035 BKN054 15/05 Q1014 TEMPO FEW040TCU

METARs EXPIRÉS :
  • 290900Z AUTO 03011KT 350V050 9999 SCT033 BKN054 15/05 Q1014 TEMPO FEW040TCU
  • 290830Z AUTO 03010KT 360V060 9999 BKN030 BKN078 BKN088 14/05 Q1014 TEMPO FEW040TCU
  • 290800Z AUTO 04010KT 9999 SCT027 BKN070 BKN082 13/05 Q1014 TEMPO FEW040TCU
  • 290730Z AUTO 01008KT CAVOK 13/05 Q1014 TEMPO FEW040TCU
  • 290700Z AUTO 35009KT CAVOK 12/05 Q1014 TEMPO FEW040TCU

TAF TAF LFST
Valide du 29 à 06h jusqu'au 30 à 06h UTC


290500Z 2906/3006 36008KT 9999 FEW040 BKN070
PROB40
TEMPO 2906/2912 -SHRA FEW040TCU



MET'MAP, la Météo Aéronautique d'un coup d'oeil ! - Copyright ORBIFLY Décembre 2007 - Disclaimer

ORBIFLY MET'MAP TEAM :

Programmation & Développement : Alexandra Zaïnal
Sur une idée originale de : Baudouin d'Aumeries
Soutien technique & logistique : Manuel Goepfert
Assistance : Marc-Olivier Méhu

Contact : metmap@orbifly.com




SOURCES & CREDITS :

   NOAA